Terminal Aerodrome Forecast
Issued by NWS Bismarck, ND

Home | Current Version | Previous Version | Graphics & Text | Print | Product List | Glossary On
Versions: 1 2 3 4 5 6 7 8 9 10 11 12 13 14 15 16 17 18
000
FTUS43 KBIS 250500 RRA
TAFBIS
TAF
KBIS 250543Z 2506/2606 32010KT P6SM OVC012
      TEMPO 2507/2510 4SM -SN BR
     FM251000 32008KT P6SM OVC015
     FM251800 27006KT P6SM OVC018
     FM252100 22008KT P6SM SCT018 SCT025 BKN150
     FM260100 23007KT P6SM BKN070 BKN100=

USA.gov is the U.S. government's official web portal to all federal, state and local government web resources and services.